createdAt,value
2023-01-19T00:01:06.617Z,95.11
2023-01-19T00:03:35.335Z,95.32
2023-01-19T00:06:19.802Z,95.24
2023-01-19T00:08:48.712Z,95.25
2023-01-19T00:11:25.549Z,95.45
2023-01-19T00:13:57.882Z,95.63
2023-01-19T00:16:24.727Z,95.53
2023-01-19T00:18:54.066Z,95.50
2023-01-19T00:21:22.349Z,95.59
2023-01-19T00:23:51.318Z,95.75
2023-01-19T00:26:19.357Z,95.72
2023-01-19T00:28:46.259Z,95.86
2023-01-19T00:31:14.027Z,95.91
2023-01-19T00:33:41.470Z,96.03
2023-01-19T00:36:17.459Z,96.11
2023-01-19T00:38:44.272Z,95.87
2023-01-19T00:41:12.574Z,95.97
2023-01-19T00:43:41.790Z,95.98
2023-01-19T00:46:12.153Z,95.81
2023-01-19T00:48:38.885Z,95.85
2023-01-19T00:51:06.309Z,95.88
2023-01-19T00:53:52.172Z,95.97
2023-01-19T00:56:19.219Z,95.82
2023-01-19T00:58:49.690Z,96.01
2023-01-19T01:01:16.682Z,96.19
2023-01-19T01:03:47.414Z,96.00
2023-01-19T01:06:17.063Z,96.21
2023-01-19T01:08:43.808Z,96.34
2023-01-19T01:11:19.721Z,96.36
2023-01-19T01:13:49.111Z,96.41
2023-01-19T01:16:16.557Z,96.40
2023-01-19T01:18:44.684Z,96.44
2023-01-19T01:21:13.060Z,96.46
2023-01-19T01:23:39.989Z,96.52
2023-01-19T01:26:06.702Z,96.28
2023-01-19T01:28:38.023Z,96.29
2023-01-19T01:31:05.431Z,96.24
2023-01-19T01:37:14.115Z,96.27
2023-01-19T01:39:42.207Z,96.07
2023-01-19T01:42:18.754Z,96.03
2023-01-19T01:44:51.708Z,95.96
2023-01-19T01:47:27.366Z,96.05
2023-01-19T01:49:59.823Z,96.16
2023-01-19T01:52:29.563Z,96.12
2023-01-19T01:54:58.107Z,96.14
2023-01-19T01:57:28.235Z,96.21
2023-01-19T01:59:58.107Z,96.23
2023-01-19T02:02:46.937Z,96.30
2023-01-19T02:05:37.231Z,96.14
2023-01-19T02:08:38.690Z,96.18
2023-01-19T02:11:25.648Z,96.42
2023-01-19T02:13:53.338Z,96.23
2023-01-19T02:16:21.301Z,96.31
2023-01-19T02:18:52.077Z,96.30
2023-01-19T02:21:35.267Z,96.39
2023-01-19T02:24:03.119Z,96.38
2023-01-19T02:26:35.406Z,96.41
2023-01-19T02:29:08.778Z,96.44
2023-01-19T02:31:37.837Z,96.38
2023-01-19T02:34:06.309Z,96.54
2023-01-19T02:36:36.623Z,96.48
2023-01-19T02:39:04.965Z,96.69
2023-01-19T02:41:36.975Z,96.67
2023-01-19T02:44:06.473Z,96.69
2023-01-19T02:46:34.354Z,96.84
2023-01-19T02:49:01.450Z,96.94
2023-01-19T02:51:48.532Z,96.91
2023-01-19T02:54:27.273Z,96.85
2023-01-19T02:57:01.880Z,97.12
2023-01-19T03:00:09.958Z,96.92
2023-01-19T03:02:56.454Z,96.91
2023-01-19T03:05:51.996Z,96.90
2023-01-19T03:08:23.653Z,96.99
2023-01-19T03:11:02.801Z,96.86
2023-01-19T03:13:59.905Z,96.88
2023-01-19T03:16:37.305Z,96.74
2023-01-19T03:19:19.736Z,96.92
2023-01-19T03:22:03.956Z,96.89
2023-01-19T03:24:38.203Z,97.08
2023-01-19T03:27:20.009Z,97.11
2023-01-19T03:29:55.719Z,96.98
2023-01-19T03:32:30.634Z,97.06
2023-01-19T03:35:01.716Z,96.91
2023-01-19T03:43:42.337Z,96.84
2023-01-19T03:46:11.463Z,96.83
2023-01-19T03:48:42.082Z,96.85
2023-01-19T03:51:09.866Z,96.85
2023-01-19T03:53:36.654Z,96.89
2023-01-19T03:56:03.828Z,96.72
2023-01-19T03:58:30.748Z,96.63
2023-01-19T04:00:57.687Z,96.63
2023-01-19T04:03:24.553Z,96.58
2023-01-19T04:05:51.498Z,96.58
2023-01-19T04:08:18.102Z,96.51
2023-01-19T04:10:44.941Z,96.62
2023-01-19T04:13:12.224Z,96.55
2023-01-19T04:15:38.874Z,96.48
2023-01-19T04:18:09.729Z,96.55
2023-01-19T04:20:37.330Z,96.47
2023-01-19T04:23:04.396Z,96.50
2023-01-19T04:25:31.501Z,96.34
2023-01-19T04:27:58.906Z,96.40
2023-01-19T04:30:26.635Z,96.23
2023-01-19T04:32:55.426Z,96.31
2023-01-19T04:35:22.676Z,96.22
2023-01-19T04:37:49.345Z,96.28
2023-01-19T04:40:15.966Z,96.20
2023-01-19T04:42:49.366Z,96.19
2023-01-19T04:45:16.263Z,96.12
2023-01-19T04:47:43.093Z,96.28
2023-01-19T04:50:11.325Z,96.29
2023-01-19T04:52:37.960Z,96.25
2023-01-19T04:55:06.443Z,96.26
2023-01-19T04:57:33.188Z,96.30
2023-01-19T05:00:00.182Z,96.37
2023-01-19T05:02:27.391Z,96.28
2023-01-19T05:04:56.644Z,96.35
2023-01-19T05:07:25.692Z,96.34
2023-01-19T05:09:55.031Z,96.36
2023-01-19T05:12:23.892Z,96.47
2023-01-19T05:14:50.488Z,96.47
2023-01-19T05:17:17.008Z,96.51
2023-01-19T05:19:43.604Z,96.27
2023-01-19T05:22:17.991Z,96.41
2023-01-19T05:24:44.844Z,96.44
2023-01-19T05:27:12.048Z,96.55
2023-01-19T05:29:38.938Z,96.44
2023-01-19T05:32:07.092Z,96.46
2023-01-19T05:34:36.757Z,96.48
2023-01-19T05:37:03.637Z,96.38
2023-01-19T05:39:30.725Z,96.50
2023-01-19T05:41:57.595Z,96.60
2023-01-19T05:44:24.522Z,96.58
2023-01-19T05:46:51.079Z,96.68
2023-01-19T05:49:18.593Z,96.57
2023-01-19T05:51:45.516Z,96.58
2023-01-19T05:54:17.837Z,96.70
2023-01-19T05:56:46.965Z,96.93
2023-01-19T05:59:13.498Z,96.81
2023-01-19T06:01:40.613Z,96.89
2023-01-19T06:04:09.650Z,96.83
2023-01-19T06:06:36.513Z,96.76
2023-01-19T06:09:03.387Z,96.83
2023-01-19T06:11:32.353Z,96.82
2023-01-19T06:14:03.998Z,96.69
2023-01-19T06:16:32.898Z,96.90
2023-01-19T06:19:01.963Z,96.77
2023-01-19T06:21:28.591Z,96.86
2023-01-19T06:23:55.074Z,96.96
2023-01-19T06:26:21.798Z,96.73
2023-01-19T06:28:48.695Z,96.79
2023-01-19T06:31:15.362Z,96.86
2023-01-19T06:33:42.368Z,96.89
2023-01-19T06:36:11.721Z,96.99
2023-01-19T06:38:38.635Z,96.92
2023-01-19T06:41:05.854Z,96.84
2023-01-19T06:43:33.137Z,96.78
2023-01-19T06:46:00.737Z,96.64
2023-01-19T06:48:33.904Z,96.51
2023-01-19T06:51:03.006Z,96.42
2023-01-19T06:53:32.179Z,96.11
2023-01-19T06:56:01.312Z,96.30
2023-01-19T06:58:29.184Z,96.14
2023-01-19T07:00:56.598Z,96.14
2023-01-19T07:03:23.730Z,96.08
2023-01-19T07:05:54.174Z,96.10
2023-01-19T07:08:20.949Z,96.20
2023-01-19T07:11:25.650Z,96.27
2023-01-19T07:13:35.796Z,96.15
2023-01-19T07:16:14.696Z,96.20
2023-01-19T07:18:41.556Z,96.13
2023-01-19T07:21:08.692Z,96.24
2023-01-19T07:23:35.743Z,96.32
2023-01-19T07:26:05.439Z,96.23
2023-01-19T07:28:33.188Z,96.24
2023-01-19T07:31:15.962Z,96.25
2023-01-19T07:33:43.476Z,96.18
2023-01-19T07:36:11.948Z,96.22
2023-01-19T07:38:38.912Z,96.21
2023-01-19T07:41:11.676Z,96.37
2023-01-19T07:43:38.263Z,96.29
2023-01-19T07:46:07.199Z,96.63
2023-01-19T07:48:35.468Z,96.45
2023-01-19T07:51:05.974Z,96.48
2023-01-19T07:53:35.399Z,96.53
2023-01-19T07:56:02.005Z,96.72
2023-01-19T07:58:31.979Z,96.62
2023-01-19T08:00:58.931Z,96.73
2023-01-19T08:03:28.073Z,96.62
2023-01-19T08:05:54.819Z,96.71
2023-01-19T08:08:24.001Z,96.73
2023-01-19T08:10:52.435Z,96.78
2023-01-19T08:13:19.367Z,96.77
2023-01-19T08:15:49.704Z,96.66
2023-01-19T08:18:16.900Z,96.70
2023-01-19T08:20:44.050Z,96.81
2023-01-19T08:23:10.947Z,96.70
2023-01-19T08:25:43.120Z,96.80
2023-01-19T08:28:11.172Z,96.84
2023-01-19T08:30:38.942Z,96.91
2023-01-19T08:33:08.320Z,96.73
2023-01-19T08:35:41.252Z,97.01
2023-01-19T08:38:09.385Z,97.11
2023-01-19T08:40:42.171Z,96.21
2023-01-19T08:43:17.820Z,96.01
2023-01-19T08:45:50.017Z,95.84
2023-01-19T08:48:19.252Z,94.88
2023-01-19T08:50:48.280Z,93.75
2023-01-19T08:53:16.021Z,93.00
2023-01-19T08:55:43.256Z,92.91
2023-01-19T08:58:11.454Z,92.65
2023-01-19T09:00:39.551Z,92.71
2023-01-19T09:03:08.080Z,93.09
2023-01-19T09:05:39.234Z,93.34
2023-01-19T09:08:11.569Z,92.67
2023-01-19T09:10:39.455Z,92.14
2023-01-19T09:13:09.504Z,91.53
2023-01-19T09:15:37.851Z,92.05
2023-01-19T09:18:07.816Z,92.32
2023-01-19T09:20:36.454Z,92.22
2023-01-19T09:23:11.194Z,92.36
2023-01-19T09:25:44.533Z,91.66
2023-01-19T09:28:18.018Z,91.67
2023-01-19T09:30:45.401Z,91.92
2023-01-19T09:33:15.548Z,91.97
2023-01-19T09:35:43.228Z,92.15
2023-01-19T09:38:15.426Z,92.40
2023-01-19T09:40:56.829Z,92.30
2023-01-19T09:43:35.574Z,92.54
2023-01-19T09:46:06.326Z,91.85
2023-01-19T09:48:58.027Z,91.35
2023-01-19T09:51:27.867Z,87.60
2023-01-19T09:54:05.751Z,86.59
2023-01-19T09:56:32.996Z,83.77
2023-01-19T09:59:00.841Z,82.11
2023-01-19T10:01:35.042Z,79.44
2023-01-19T10:04:23.647Z,77.71
2023-01-19T10:06:56.873Z,75.49
2023-01-19T10:09:42.023Z,73.79
2023-01-19T10:12:19.903Z,73.58
2023-01-19T10:14:58.207Z,72.33
2023-01-19T10:17:45.653Z,71.88
2023-01-19T10:20:23.316Z,70.53
2023-01-19T10:22:52.228Z,70.46
2023-01-19T10:25:25.398Z,70.70
2023-01-19T10:27:54.614Z,70.65
2023-01-19T10:30:29.271Z,69.40
2023-01-19T10:32:56.250Z,70.73
2023-01-19T10:35:25.425Z,69.79
2023-01-19T10:38:00.398Z,68.91
2023-01-19T10:40:33.743Z,70.21
2023-01-19T10:43:00.827Z,71.72
2023-01-19T10:45:31.731Z,72.35
2023-01-19T10:48:06.532Z,73.92
2023-01-19T10:50:37.390Z,73.13
2023-01-19T10:53:06.619Z,71.89
2023-01-19T10:55:38.387Z,69.73
2023-01-19T10:58:06.970Z,68.91
2023-01-19T11:00:41.671Z,67.17
2023-01-19T11:03:25.553Z,66.96
2023-01-19T11:05:52.488Z,66.75
2023-01-19T11:08:28.672Z,64.44
2023-01-19T11:11:04.707Z,64.43
2023-01-19T11:13:33.852Z,64.34
2023-01-19T11:16:15.662Z,65.25
2023-01-19T11:18:44.203Z,64.65
2023-01-19T11:21:15.142Z,64.93
2023-01-19T11:23:55.253Z,63.79
2023-01-19T11:27:04.049Z,64.21
2023-01-19T11:29:31.618Z,63.65
2023-01-19T11:32:12.915Z,63.80
2023-01-19T11:34:39.755Z,63.94
2023-01-19T11:37:06.467Z,63.83
2023-01-19T11:39:49.613Z,65.71
2023-01-19T11:42:18.058Z,66.33
2023-01-19T11:44:55.432Z,67.37
2023-01-19T11:47:33.188Z,68.66
2023-01-19T11:50:13.293Z,69.21
2023-01-19T11:52:46.101Z,70.52
2023-01-19T11:55:12.552Z,71.57
2023-01-19T11:57:44.608Z,71.54
2023-01-19T12:00:20.305Z,72.07
2023-01-19T12:02:50.334Z,72.92
2023-01-19T12:05:21.629Z,72.30
2023-01-19T12:07:50.925Z,72.70
2023-01-19T12:10:33.388Z,72.21
2023-01-19T12:13:01.071Z,72.41
2023-01-19T12:15:41.870Z,72.53
2023-01-19T12:18:29.271Z,72.02
2023-01-19T12:20:56.979Z,71.60
2023-01-19T12:23:42.146Z,71.72
2023-01-19T12:26:17.800Z,71.47
2023-01-19T12:28:50.104Z,72.10
2023-01-19T12:31:22.600Z,72.53
2023-01-19T12:33:54.217Z,72.43
2023-01-19T12:36:29.872Z,72.47
2023-01-19T12:39:13.585Z,72.21
2023-01-19T12:41:41.380Z,72.84
2023-01-19T12:44:19.090Z,72.55
2023-01-19T12:46:49.504Z,72.60
2023-01-19T12:49:33.556Z,72.20
2023-01-19T12:52:37.609Z,72.60
2023-01-19T12:55:13.524Z,72.39
2023-01-19T12:58:01.031Z,71.82
2023-01-19T13:00:40.125Z,71.13
2023-01-19T13:03:18.883Z,70.82
2023-01-19T13:05:52.683Z,70.71
2023-01-19T13:08:27.712Z,71.25
2023-01-19T13:11:09.576Z,70.45
2023-01-19T13:13:37.206Z,70.60
2023-01-19T13:16:19.080Z,70.11
2023-01-19T13:18:52.721Z,69.89
2023-01-19T13:21:31.705Z,69.65
2023-01-19T13:24:03.468Z,69.37
2023-01-19T13:26:34.390Z,68.90
2023-01-19T13:29:14.196Z,69.58
2023-01-19T13:31:43.006Z,69.47
2023-01-19T13:34:16.703Z,68.60
2023-01-19T13:36:51.689Z,68.77
2023-01-19T13:39:37.376Z,68.68
2023-01-19T13:42:08.927Z,68.42
2023-01-19T13:44:47.077Z,67.88
2023-01-19T13:47:17.801Z,68.60
2023-01-19T13:49:46.691Z,68.06
2023-01-19T13:52:21.925Z,67.71
2023-01-19T13:55:04.091Z,67.66
2023-01-19T13:57:39.717Z,67.74
2023-01-19T14:00:12.177Z,67.76
2023-01-19T14:02:41.291Z,67.80
2023-01-19T14:05:26.426Z,67.18
2023-01-19T14:08:10.071Z,67.80
2023-01-19T14:10:48.662Z,68.07
2023-01-19T14:13:21.407Z,68.45
2023-01-19T14:15:50.409Z,68.17
2023-01-19T14:18:17.224Z,68.49
2023-01-19T14:20:59.433Z,68.57
2023-01-19T14:23:42.117Z,68.63
2023-01-19T14:26:41.618Z,68.83
2023-01-19T14:29:21.756Z,69.10
2023-01-19T14:32:02.624Z,69.63
2023-01-19T14:34:44.418Z,69.32
2023-01-19T14:37:24.842Z,70.07
2023-01-19T14:40:15.023Z,70.02
2023-01-19T14:42:48.130Z,70.19
2023-01-19T14:45:21.391Z,70.35
2023-01-19T14:47:59.977Z,70.20
2023-01-19T14:50:37.026Z,70.37
2023-01-19T14:53:09.757Z,70.25
2023-01-19T14:55:47.801Z,70.01
2023-01-19T14:58:18.085Z,70.21
2023-01-19T15:00:45.759Z,70.45
2023-01-19T15:03:13.324Z,70.74
2023-01-19T15:05:43.030Z,70.14
2023-01-19T15:08:20.232Z,70.15
2023-01-19T15:10:47.192Z,70.40
2023-01-19T15:13:22.368Z,70.55
2023-01-19T15:16:09.227Z,70.64
2023-01-19T15:18:36.611Z,70.20
2023-01-19T15:21:03.551Z,70.30
2023-01-19T15:23:31.672Z,70.52
2023-01-19T15:26:04.029Z,71.38
2023-01-19T15:28:31.496Z,71.23
2023-01-19T15:31:01.470Z,71.50
2023-01-19T15:33:33.650Z,71.64
2023-01-19T15:36:02.788Z,72.00
2023-01-19T15:38:31.759Z,72.11
2023-01-19T15:40:59.308Z,72.08
2023-01-19T15:43:26.179Z,72.49
2023-01-19T15:46:01.185Z,72.64
2023-01-19T15:48:28.650Z,72.80
2023-01-19T15:50:55.591Z,72.75
2023-01-19T15:53:24.463Z,72.72
2023-01-19T15:55:53.356Z,72.93
2023-01-19T15:58:21.030Z,72.91
2023-01-19T16:00:57.751Z,73.95
2023-01-19T16:03:28.410Z,74.59
2023-01-19T16:06:33.989Z,74.81
2023-01-19T16:09:01.770Z,74.55
2023-01-19T16:11:31.721Z,74.34
2023-01-19T16:13:59.811Z,74.76
2023-01-19T16:16:28.384Z,74.98
2023-01-19T16:18:58.017Z,74.87
2023-01-19T16:21:24.878Z,75.07
2023-01-19T16:23:51.989Z,75.39
2023-01-19T16:26:31.110Z,75.31
2023-01-19T16:29:08.157Z,75.49
2023-01-19T16:31:37.451Z,75.83
2023-01-19T16:34:04.162Z,76.67
2023-01-19T16:36:33.149Z,76.93
2023-01-19T16:39:06.516Z,77.15
2023-01-19T16:41:35.615Z,77.03
2023-01-19T16:44:03.196Z,77.08
2023-01-19T16:46:35.509Z,77.23
2023-01-19T16:49:23.114Z,77.32
2023-01-19T16:51:50.590Z,77.44
2023-01-19T16:54:20.559Z,77.70
2023-01-19T16:56:48.315Z,78.01
2023-01-19T16:59:21.391Z,78.39
2023-01-19T17:02:03.050Z,78.80
2023-01-19T17:04:29.697Z,78.84
2023-01-19T17:06:57.683Z,78.92
2023-01-19T17:09:24.402Z,78.90
2023-01-19T17:11:51.261Z,78.88
2023-01-19T17:14:22.884Z,78.69
2023-01-19T17:16:49.538Z,78.58
2023-01-19T17:19:18.604Z,78.73
2023-01-19T17:21:46.729Z,78.54
2023-01-19T17:24:13.356Z,78.71
2023-01-19T17:26:40.614Z,78.74
2023-01-19T17:29:09.850Z,78.73
2023-01-19T17:31:37.527Z,79.19
2023-01-19T17:34:05.088Z,79.15
2023-01-19T17:36:35.763Z,79.10
2023-01-19T17:39:07.096Z,79.18
2023-01-19T17:41:35.662Z,79.36
2023-01-19T17:44:04.826Z,79.38
2023-01-19T17:46:35.051Z,79.49
2023-01-19T17:49:05.751Z,79.54
2023-01-19T17:51:35.834Z,79.90
2023-01-19T17:54:02.850Z,79.92
2023-01-19T17:56:45.704Z,80.41
2023-01-19T17:59:13.728Z,80.75
2023-01-19T18:01:41.957Z,80.95
2023-01-19T18:04:09.142Z,81.28
2023-01-19T18:06:37.272Z,81.50
2023-01-19T18:09:07.128Z,81.79
2023-01-19T18:11:34.910Z,82.00
2023-01-19T18:14:04.266Z,82.35
2023-01-19T18:16:32.295Z,82.67
2023-01-19T18:19:01.556Z,83.10
2023-01-19T18:21:31.855Z,83.92
2023-01-19T18:24:02.637Z,84.57
2023-01-19T18:26:30.347Z,84.82
2023-01-19T18:28:57.957Z,85.33
2023-01-19T18:31:29.091Z,85.70
2023-01-19T18:33:56.310Z,86.14
2023-01-19T18:36:25.449Z,86.27
2023-01-19T18:38:53.836Z,86.47
2023-01-19T18:41:22.055Z,86.37
2023-01-19T18:43:52.314Z,86.16
2023-01-19T18:46:19.450Z,86.57
2023-01-19T18:48:56.984Z,86.93
2023-01-19T18:51:29.233Z,86.87
2023-01-19T18:53:57.989Z,86.95
2023-01-19T18:56:26.076Z,87.04
2023-01-19T18:58:53.622Z,87.44
2023-01-19T19:01:24.072Z,87.68
2023-01-19T19:03:53.964Z,87.87
2023-01-19T19:06:26.271Z,88.04
2023-01-19T19:08:55.476Z,88.18
2023-01-19T19:11:26.751Z,88.62
2023-01-19T19:13:56.834Z,88.64
2023-01-19T19:16:24.505Z,88.93
2023-01-19T19:18:51.401Z,89.02
2023-01-19T19:21:19.934Z,89.15
2023-01-19T19:23:51.896Z,89.39
2023-01-19T19:26:18.912Z,89.36
2023-01-19T19:28:49.791Z,89.46
2023-01-19T19:31:20.971Z,89.44
2023-01-19T19:33:49.439Z,89.49
2023-01-19T19:36:16.851Z,89.74
2023-01-19T19:38:45.115Z,89.75
2023-01-19T19:41:14.717Z,89.82
2023-01-19T19:43:41.818Z,89.84
2023-01-19T19:46:11.224Z,89.92
2023-01-19T19:48:39.417Z,89.99
2023-01-19T19:51:17.414Z,89.95
2023-01-19T19:53:51.160Z,89.94
2023-01-19T19:56:21.107Z,89.96
2023-01-19T19:58:48.848Z,89.94
2023-01-19T20:01:25.226Z,90.02
2023-01-19T20:04:00.536Z,89.85
2023-01-19T20:06:37.707Z,89.93
2023-01-19T20:09:06.743Z,89.76
2023-01-19T20:11:33.472Z,89.75
2023-01-19T20:14:00.042Z,89.52
2023-01-19T20:16:28.150Z,89.64
2023-01-19T20:18:55.304Z,89.76
2023-01-19T20:21:25.061Z,89.90
2023-01-19T20:23:53.580Z,90.03
2023-01-19T20:26:25.385Z,90.18
2023-01-19T20:28:53.033Z,90.37
2023-01-19T20:31:26.998Z,90.62
2023-01-19T20:33:56.240Z,90.80
2023-01-19T20:36:24.966Z,90.86
2023-01-19T20:38:54.813Z,91.15
2023-01-19T20:41:22.679Z,91.27
2023-01-19T20:43:50.078Z,91.42
2023-01-19T20:46:21.547Z,91.62
2023-01-19T20:48:52.981Z,91.54
2023-01-19T20:51:20.820Z,91.56
2023-01-19T20:53:53.019Z,91.39
2023-01-19T20:56:22.499Z,91.16
2023-01-19T20:58:49.291Z,91.08
2023-01-19T21:01:25.669Z,91.40
2023-01-19T21:03:52.611Z,91.78
2023-01-19T21:06:21.470Z,91.58
2023-01-19T21:08:51.922Z,91.56
2023-01-19T21:11:21.301Z,91.63
2023-01-19T21:13:55.589Z,91.67
2023-01-19T21:16:32.135Z,91.76
2023-01-19T21:18:59.481Z,91.91
2023-01-19T21:21:31.685Z,92.15
2023-01-19T21:24:00.230Z,92.23
2023-01-19T21:26:30.062Z,92.32
2023-01-19T21:28:58.503Z,92.26
2023-01-19T21:31:28.624Z,92.32
2023-01-19T21:33:58.023Z,92.48
2023-01-19T21:36:25.261Z,92.54
2023-01-19T21:38:52.741Z,92.65
2023-01-19T21:41:19.885Z,92.75
2023-01-19T21:43:50.390Z,92.71
2023-01-19T21:46:30.704Z,92.85
2023-01-19T21:48:59.344Z,92.99
2023-01-19T21:51:35.128Z,93.08
2023-01-19T21:54:06.093Z,93.04
2023-01-19T21:56:33.804Z,93.15
2023-01-19T21:59:03.210Z,93.23
2023-01-19T22:01:31.016Z,93.40
2023-01-19T22:03:58.701Z,93.33
2023-01-19T22:06:26.779Z,93.55
2023-01-19T22:08:54.191Z,93.49
2023-01-19T22:11:22.690Z,93.66
2023-01-19T22:13:49.587Z,93.69
2023-01-19T22:16:19.476Z,93.49
2023-01-19T22:18:55.645Z,93.52
2023-01-19T22:21:25.052Z,93.58
2023-01-19T22:23:55.910Z,93.59
2023-01-19T22:26:25.711Z,93.70
2023-01-19T22:28:57.350Z,93.73
2023-01-19T22:31:26.423Z,93.92
2023-01-19T22:33:53.957Z,93.61
2023-01-19T22:36:26.894Z,93.68
2023-01-19T22:38:58.286Z,93.46
2023-01-19T22:41:33.612Z,93.45
2023-01-19T22:44:07.606Z,93.41
2023-01-19T22:46:36.508Z,93.46
2023-01-19T22:49:05.125Z,93.50
2023-01-19T22:51:33.057Z,93.52
2023-01-19T22:54:00.561Z,93.63
2023-01-19T22:56:29.913Z,93.75
2023-01-19T22:58:58.833Z,93.84
2023-01-19T23:01:26.492Z,93.88
2023-01-19T23:03:54.572Z,93.91
2023-01-19T23:06:23.962Z,93.96
2023-01-19T23:08:51.241Z,94.07
2023-01-19T23:11:20.450Z,94.11
2023-01-19T23:13:47.215Z,94.20
2023-01-19T23:16:14.197Z,94.43
2023-01-19T23:18:45.014Z,94.32
2023-01-19T23:21:22.530Z,94.41
2023-01-19T23:23:52.844Z,94.55
2023-01-19T23:26:20.281Z,94.47
2023-01-19T23:28:47.886Z,94.52
2023-01-19T23:31:18.539Z,94.65
2023-01-19T23:33:50.346Z,94.59
2023-01-19T23:36:18.075Z,94.65
2023-01-19T23:38:50.721Z,94.68
2023-01-19T23:41:20.097Z,94.59
2023-01-19T23:43:47.061Z,94.62
2023-01-19T23:46:15.664Z,94.59
2023-01-19T23:48:42.407Z,94.72
2023-01-19T23:51:30.375Z,94.79
2023-01-19T23:53:58.845Z,94.72
2023-01-19T23:56:25.259Z,94.70
2023-01-19T23:58:54.597Z,94.66
